createdAt,value
2022-11-17T00:00:21.354Z,98842.50
2022-11-17T00:01:25.134Z,98836.31
2022-11-17T00:02:28.297Z,98836.31
2022-11-17T00:03:32.668Z,98833.63
2022-11-17T00:04:35.375Z,98828.27
2022-11-17T00:05:37.460Z,98837.14
2022-11-17T00:06:39.576Z,98838.84
2022-11-17T00:07:42.144Z,98831.78
2022-11-17T00:08:44.744Z,98829.10
2022-11-17T00:09:47.509Z,98838.02
2022-11-17T00:10:50.172Z,98834.36
2022-11-17T00:11:52.290Z,98829.97
2022-11-17T00:12:55.285Z,98832.66
2022-11-17T00:13:57.372Z,98831.78
2022-11-17T00:14:59.482Z,98830.81
2022-11-17T00:16:02.597Z,98828.13
2022-11-17T00:18:18.357Z,98823.55
2022-11-17T00:19:21.051Z,98825.30
2022-11-17T00:20:24.003Z,98832.52
2022-11-17T00:21:26.246Z,98825.30
2022-11-17T00:22:29.847Z,98827.05
2022-11-17T00:23:32.791Z,98830.56
2022-11-17T00:24:35.480Z,98825.20
2022-11-17T00:25:38.099Z,98817.16
2022-11-17T00:26:40.391Z,98823.49
2022-11-17T00:27:42.897Z,98814.48
2022-11-17T00:28:45.005Z,98823.39
2022-11-17T00:29:47.092Z,98827.05
2022-11-17T00:30:49.171Z,98819.84
2022-11-17T00:31:53.022Z,98818.02
2022-11-17T00:33:00.049Z,98819.84
2022-11-17T00:34:02.995Z,98818.86
2022-11-17T00:35:06.122Z,98812.52
2022-11-17T00:36:08.491Z,98807.30
2022-11-17T00:37:10.677Z,98804.63
2022-11-17T00:38:12.865Z,98810.82
2022-11-17T00:39:15.646Z,98808.14
2022-11-17T00:40:18.132Z,98806.29
2022-11-17T00:41:20.121Z,98814.33
2022-11-17T00:42:22.301Z,98811.66
2022-11-17T00:43:24.389Z,98812.52
2022-11-17T00:44:27.180Z,98810.67
2022-11-17T00:45:29.549Z,98812.52
2022-11-17T00:46:31.866Z,98816.91
2022-11-17T00:47:36.419Z,98813.36
2022-11-17T00:48:39.043Z,98809.84
2022-11-17T00:49:41.132Z,98803.61
2022-11-17T00:50:43.363Z,98806.29
2022-11-17T00:51:45.540Z,98806.04
2022-11-17T00:52:48.452Z,98801.80
2022-11-17T00:53:50.550Z,98808.00
2022-11-17T00:54:53.654Z,98806.19
2022-11-17T00:55:55.784Z,98811.55
2022-11-17T00:56:57.878Z,98806.19
2022-11-17T00:58:00.099Z,98808.86
2022-11-17T00:59:02.525Z,98812.37
2022-11-17T01:00:06.463Z,98811.41
2022-11-17T01:01:08.740Z,98819.45
2022-11-17T01:02:10.881Z,98810.53
2022-11-17T01:03:12.988Z,98819.45
2022-11-17T01:04:15.375Z,98813.22
2022-11-17T01:05:17.554Z,98809.55
2022-11-17T01:06:20.171Z,98812.23
2022-11-17T01:07:22.588Z,98813.07
2022-11-17T01:08:24.773Z,98814.92
2022-11-17T01:09:26.782Z,98813.22
2022-11-17T01:10:30.000Z,98811.41
2022-11-17T01:11:32.028Z,98806.04
2022-11-17T01:12:34.161Z,98801.52
2022-11-17T01:13:37.356Z,98801.52
2022-11-17T01:14:40.713Z,98806.73
2022-11-17T01:15:43.753Z,98801.38
2022-11-17T01:16:45.900Z,98801.38
2022-11-17T01:17:49.015Z,98805.90
2022-11-17T01:18:52.904Z,98809.41
2022-11-17T01:19:55.764Z,98808.58
2022-11-17T01:22:19.920Z,98812.11
2022-11-17T01:23:22.250Z,98815.06
2022-11-17T01:24:24.365Z,98812.52
2022-11-17T01:25:26.551Z,98808.14
2022-11-17T01:27:43.046Z,98803.91
2022-11-17T01:28:46.712Z,98811.21
2022-11-17T01:29:48.876Z,98806.97
2022-11-17T01:30:50.965Z,98802.58
2022-11-17T01:31:53.454Z,98814.28
2022-11-17T01:32:55.435Z,98810.07
2022-11-17T01:33:57.927Z,98805.69
2022-11-17T01:35:00.725Z,98803.14
2022-11-17T01:36:04.327Z,98806.80
2022-11-17T01:37:06.716Z,98814.98
2022-11-17T01:38:08.827Z,98802.56
2022-11-17T01:39:11.066Z,98810.73
2022-11-17T01:40:13.142Z,98817.07
2022-11-17T01:41:19.845Z,98814.53
2022-11-17T01:42:24.344Z,98809.31
2022-11-17T01:43:43.415Z,98806.63
2022-11-17T01:45:01.714Z,98811.30
2022-11-17T01:46:04.282Z,98809.73
2022-11-17T01:47:16.371Z,98806.33
2022-11-17T01:48:18.498Z,98816.34
2022-11-17T01:49:22.276Z,98808.45
2022-11-17T01:50:28.264Z,98818.30
2022-11-17T01:51:32.102Z,98818.44
2022-11-17T01:52:34.350Z,98816.73
2022-11-17T01:53:36.936Z,98815.05
2022-11-17T01:54:40.374Z,98812.52
2022-11-17T01:55:48.440Z,98809.95
2022-11-17T01:56:53.007Z,98809.11
2022-11-17T01:58:04.307Z,98815.44
2022-11-17T02:00:39.546Z,98811.27
2022-11-17T02:01:42.037Z,98814.88
2022-11-17T02:02:44.280Z,98812.48
2022-11-17T02:03:46.749Z,98819.65
2022-11-17T02:06:31.601Z,98814.05
2022-11-17T02:07:35.216Z,98814.02
2022-11-17T02:08:38.444Z,98817.70
2022-11-17T02:09:40.621Z,98814.02
2022-11-17T02:10:48.532Z,98811.34
2022-11-17T02:11:48.139Z,98816.59
2022-11-17T02:12:52.342Z,98815.72
2022-11-17T02:13:54.672Z,98822.78
2022-11-17T02:14:57.394Z,98819.27
2022-11-17T02:16:00.499Z,98820.80
2022-11-17T02:17:11.548Z,98827.02
2022-11-17T02:18:08.102Z,98821.67
2022-11-17T02:19:10.504Z,98822.50
2022-11-17T02:20:19.316Z,98824.20
2022-11-17T02:21:54.149Z,98824.20
2022-11-17T02:23:00.089Z,98819.69
2022-11-17T02:24:22.937Z,98826.75
2022-11-17T02:25:53.471Z,98822.36
2022-11-17T02:27:08.930Z,98824.20
2022-11-17T02:28:23.562Z,98830.54
2022-11-17T02:31:14.625Z,98820.84
2022-11-17T02:33:43.600Z,98826.33
2022-11-17T02:35:18.557Z,98821.80
2022-11-17T02:36:34.158Z,98822.64
2022-11-17T02:39:14.839Z,98819.16
2022-11-17T02:40:33.518Z,98819.13
2022-11-17T02:41:43.325Z,98815.58
2022-11-17T02:42:48.953Z,98819.13
2022-11-17T02:44:07.128Z,98819.13
2022-11-17T02:45:14.732Z,98812.77
2022-11-17T02:46:31.778Z,98823.61
2022-11-17T02:47:35.660Z,98820.94
2022-11-17T02:48:40.961Z,98824.48
2022-11-17T02:49:45.508Z,98825.32
2022-11-17T02:51:05.064Z,98825.32
2022-11-17T02:52:10.176Z,98831.52
2022-11-17T02:53:12.969Z,98819.96
2022-11-17T02:54:16.751Z,98825.19
2022-11-17T02:55:19.428Z,98828.70
2022-11-17T02:56:22.135Z,98826.89
2022-11-17T02:57:32.175Z,98832.11
2022-11-17T02:58:34.341Z,98828.45
2022-11-17T02:59:39.560Z,98830.27
2022-11-17T03:01:15.318Z,98830.13
2022-11-17T03:03:55.116Z,98825.67
2022-11-17T03:05:34.855Z,98823.09
2022-11-17T03:06:50.072Z,98822.23
2022-11-17T03:07:58.955Z,98819.55
2022-11-17T03:09:28.462Z,98819.69
2022-11-17T03:12:21.402Z,98810.84
2022-11-17T03:13:42.078Z,98822.50
2022-11-17T03:15:04.811Z,98816.45
2022-11-17T03:16:32.497Z,98812.91
2022-11-17T03:17:44.236Z,98812.06
2022-11-17T03:19:02.507Z,98812.20
2022-11-17T03:21:52.191Z,98818.57
2022-11-17T03:23:10.363Z,98819.37
2022-11-17T03:24:30.463Z,98822.19
2022-11-17T03:25:33.420Z,98821.48
2022-11-17T03:26:42.123Z,98816.97
2022-11-17T03:29:06.324Z,98824.07
2022-11-17T03:30:09.247Z,98829.52
2022-11-17T03:31:11.579Z,98827.82
2022-11-17T03:32:14.023Z,98825.98
2022-11-17T03:33:19.597Z,98823.89
2022-11-17T03:34:22.251Z,98833.77
2022-11-17T03:35:26.901Z,98825.73
2022-11-17T03:36:35.490Z,98828.27
2022-11-17T03:37:41.222Z,98823.75
2022-11-17T03:38:49.845Z,98828.97
2022-11-17T03:39:53.091Z,98830.68
2022-11-17T03:40:57.601Z,98829.70
2022-11-17T03:42:02.575Z,98825.19
2022-11-17T03:43:05.730Z,98824.20
2022-11-17T03:44:07.748Z,98829.56
2022-11-17T03:46:30.817Z,98816.91
2022-11-17T03:47:34.175Z,98819.69
2022-11-17T03:50:07.218Z,98821.28
2022-11-17T03:51:22.395Z,98824.91
2022-11-17T03:52:25.217Z,98818.71
2022-11-17T03:53:27.325Z,98819.55
2022-11-17T03:54:31.378Z,98823.09
2022-11-17T03:55:55.059Z,98820.41
2022-11-17T03:57:03.319Z,98814.05
2022-11-17T03:58:07.870Z,98813.08
2022-11-17T03:59:16.540Z,98815.75
2022-11-17T04:00:19.606Z,98816.62
2022-11-17T04:01:22.651Z,98821.98
2022-11-17T04:02:25.701Z,98815.62
2022-11-17T04:05:01.556Z,98811.02
2022-11-17T04:06:04.189Z,98807.44
2022-11-17T04:07:06.329Z,98802.08
2022-11-17T04:08:08.569Z,98805.77
2022-11-17T04:09:10.648Z,98805.63
2022-11-17T04:10:14.736Z,98804.76
2022-11-17T04:11:16.844Z,98806.47
2022-11-17T04:12:19.044Z,98801.97
2022-11-17T04:13:21.414Z,98802.67
2022-11-17T04:14:23.522Z,98813.53
2022-11-17T04:15:25.927Z,98802.81
2022-11-17T04:16:28.253Z,98794.19
2022-11-17T04:17:30.325Z,98794.19
2022-11-17T04:18:32.431Z,98804.37
2022-11-17T04:19:35.249Z,98806.05
2022-11-17T04:20:38.330Z,98801.70
2022-11-17T04:21:40.589Z,98801.55
2022-11-17T04:22:42.676Z,98802.39
2022-11-17T04:23:45.623Z,98803.37
2022-11-17T04:24:48.822Z,98807.75
2022-11-17T04:25:52.974Z,98801.55
2022-11-17T04:26:55.120Z,98799.71
2022-11-17T04:27:57.132Z,98812.13
2022-11-17T04:28:59.901Z,98813.98
2022-11-17T04:30:02.357Z,98805.94
2022-11-17T04:31:15.188Z,98812.13
2022-11-17T04:32:17.347Z,98807.61
2022-11-17T04:33:19.974Z,98818.33
2022-11-17T04:34:22.089Z,98804.93
2022-11-17T04:35:25.023Z,98810.29
2022-11-17T04:37:41.823Z,98804.81
2022-11-17T04:38:45.506Z,98805.80
2022-11-17T04:39:47.520Z,98807.61
2022-11-17T04:40:49.647Z,98805.80
2022-11-17T04:41:52.373Z,98795.08
2022-11-17T04:42:55.042Z,98800.44
2022-11-17T04:43:57.703Z,98799.57
2022-11-17T04:45:00.795Z,98803.12
2022-11-17T04:46:03.809Z,98804.09
2022-11-17T04:47:06.289Z,98812.13
2022-11-17T04:48:10.054Z,98804.93
2022-11-17T04:49:13.983Z,98807.61
2022-11-17T04:50:16.706Z,98807.61
2022-11-17T04:51:20.058Z,98803.26
2022-11-17T04:52:26.912Z,98811.30
2022-11-17T04:53:26.625Z,98812.13
2022-11-17T04:54:29.238Z,98803.26
2022-11-17T04:55:31.907Z,98803.26
2022-11-17T04:56:34.102Z,98807.61
2022-11-17T04:57:36.424Z,98799.57
2022-11-17T04:58:39.287Z,98805.94
2022-11-17T04:59:41.522Z,98808.62
2022-11-17T05:00:43.787Z,98810.29
2022-11-17T05:01:46.062Z,98811.30
2022-11-17T05:02:48.434Z,98809.45
2022-11-17T05:03:54.937Z,98797.03
2022-11-17T05:04:57.347Z,98807.61
2022-11-17T05:05:59.584Z,98797.77
2022-11-17T05:07:03.265Z,98796.05
2022-11-17T05:08:05.878Z,98798.73
2022-11-17T05:09:09.865Z,98796.75
2022-11-17T05:10:12.266Z,98799.43
2022-11-17T05:11:14.899Z,98794.07
2022-11-17T05:12:17.088Z,98811.99
2022-11-17T05:13:19.571Z,98810.15
2022-11-17T05:14:22.805Z,98816.52
2022-11-17T05:15:25.373Z,98816.52
2022-11-17T05:16:27.720Z,98820.03
2022-11-17T05:17:30.019Z,98824.42
2022-11-17T05:18:32.591Z,98822.71
2022-11-17T05:19:39.922Z,98821.73
2022-11-17T05:20:42.922Z,98827.09
2022-11-17T05:21:45.031Z,98823.55
2022-11-17T05:22:47.043Z,98828.07
2022-11-17T05:23:49.905Z,98828.91
2022-11-17T05:24:52.278Z,98832.45
2022-11-17T05:25:54.372Z,98832.45
2022-11-17T05:26:56.564Z,98828.80
2022-11-17T05:27:58.831Z,98835.97
2022-11-17T05:29:03.716Z,98830.61
2022-11-17T05:30:08.836Z,98830.61
2022-11-17T05:31:11.286Z,98839.52
2022-11-17T05:32:13.368Z,98832.45
2022-11-17T05:33:15.524Z,98838.65
2022-11-17T05:34:17.638Z,98827.94
2022-11-17T05:35:19.724Z,98832.45
2022-11-17T05:36:23.091Z,98834.27
2022-11-17T05:37:25.221Z,98828.80
2022-11-17T05:38:27.832Z,98834.16
2022-11-17T05:39:30.776Z,98834.16
2022-11-17T05:40:33.066Z,98840.36
2022-11-17T05:41:35.260Z,98837.67
2022-11-17T05:42:37.981Z,98832.31
2022-11-17T05:43:40.127Z,98836.84
2022-11-17T05:44:42.138Z,98832.31
2022-11-17T05:45:47.609Z,98834.16
2022-11-17T05:46:49.861Z,98834.16
2022-11-17T05:47:52.055Z,98845.71
2022-11-17T05:48:54.239Z,98843.03
2022-11-17T05:49:56.341Z,98844.88
2022-11-17T05:50:59.013Z,98845.71
2022-11-17T05:52:01.243Z,98844.01
2022-11-17T05:53:03.533Z,98847.56
2022-11-17T05:54:06.031Z,98851.08
2022-11-17T05:55:08.398Z,98851.08
2022-11-17T05:56:33.846Z,98850.23
2022-11-17T05:57:35.992Z,98850.23
2022-11-17T05:58:38.987Z,98848.39
2022-11-17T05:59:44.139Z,98858.27
2022-11-17T06:00:46.628Z,98859.25
2022-11-17T06:01:52.388Z,98869.97
2022-11-17T06:04:09.729Z,98870.84
2022-11-17T06:05:17.051Z,98870.95
2022-11-17T06:06:15.813Z,98884.34
2022-11-17T06:07:18.153Z,98876.30
2022-11-17T06:08:20.314Z,98879.95
2022-11-17T06:09:22.820Z,98878.98
2022-11-17T06:10:26.096Z,98887.86
2022-11-17T06:11:28.189Z,98890.54
2022-11-17T06:12:30.726Z,98884.20
2022-11-17T06:13:33.146Z,98867.25
2022-11-17T06:14:35.619Z,98867.25
2022-11-17T06:15:37.729Z,98883.37
2022-11-17T06:16:41.366Z,98883.23
2022-11-17T06:19:11.421Z,98876.06
2022-11-17T06:20:19.813Z,98880.55
2022-11-17T06:21:21.944Z,98876.16
2022-11-17T06:22:25.525Z,98870.80
2022-11-17T06:23:28.937Z,98871.67
2022-11-17T06:24:32.204Z,98872.52
2022-11-17T06:25:34.975Z,98869.00
2022-11-17T06:26:38.439Z,98864.47
2022-11-17T06:27:40.617Z,98858.97
2022-11-17T06:28:44.141Z,98859.11
2022-11-17T06:29:46.415Z,98860.95
2022-11-17T06:30:48.526Z,98856.44
2022-11-17T06:31:51.501Z,98851.08
2022-11-17T06:32:53.872Z,98853.61
2022-11-17T06:33:56.322Z,98843.03
2022-11-17T06:34:59.067Z,98841.19
2022-11-17T06:36:01.699Z,98839.38
2022-11-17T06:37:03.813Z,98835.69
2022-11-17T06:38:05.925Z,98835.69
2022-11-17T06:39:08.012Z,98828.52
2022-11-17T06:40:11.002Z,98823.16
2022-11-17T06:41:13.263Z,98820.34
2022-11-17T06:42:15.886Z,98816.83
2022-11-17T10:42:02.811Z,98740.72
2022-11-17T10:43:14.833Z,98738.63
2022-11-17T10:44:23.107Z,98738.17
2022-11-17T10:45:26.594Z,98737.34
2022-11-17T10:46:38.190Z,98724.54
2022-11-17T10:47:39.905Z,98724.54
2022-11-17T10:48:54.255Z,98737.47
2022-11-17T10:50:20.545Z,98742.69
2022-11-17T10:51:24.114Z,98745.98
2022-11-17T10:52:28.158Z,98743.06
2022-11-17T10:53:37.057Z,98751.94
2022-11-17T10:54:39.316Z,98750.22
2022-11-17T10:55:41.408Z,98744.15
2022-11-17T10:56:48.139Z,98735.31
2022-11-17T10:59:56.460Z,98747.60
2022-11-17T11:00:59.208Z,98752.34
2022-11-17T11:02:24.530Z,98735.69
2022-11-17T11:03:31.299Z,98735.03
2022-11-17T11:04:37.521Z,98726.39
2022-11-17T11:05:57.662Z,98730.38
2022-11-17T11:08:21.777Z,98726.52
2022-11-17T11:09:24.787Z,98723.47
2022-11-17T11:10:33.043Z,98728.48
2022-11-17T11:11:44.718Z,98719.22
2022-11-17T11:12:53.902Z,98732.20
2022-11-17T11:15:23.456Z,98725.99
2022-11-17T11:16:25.987Z,98733.83
2022-11-17T11:17:28.077Z,98729.05
2022-11-17T11:18:31.223Z,98726.13
2022-11-17T11:19:33.587Z,98728.53
2022-11-17T11:20:49.066Z,98722.08
2022-11-17T11:22:21.597Z,98734.21
2022-11-17T11:23:36.841Z,98734.08
2022-11-17T11:25:07.188Z,98732.83
2022-11-17T11:26:25.471Z,98730.02
2022-11-17T11:27:41.685Z,98732.56
2022-11-17T11:29:09.238Z,98735.23
2022-11-17T11:31:39.178Z,98734.17
2022-11-17T11:33:00.020Z,98726.09
2022-11-17T11:34:16.153Z,98725.23
2022-11-17T11:35:37.346Z,98728.77
2022-11-17T11:36:55.442Z,98729.61
2022-11-17T11:38:17.957Z,98731.31
2022-11-17T11:39:56.228Z,98732.02
2022-11-17T11:41:02.151Z,98723.98
2022-11-17T11:42:41.673Z,98721.30
2022-11-17T11:44:02.895Z,98723.98
2022-11-17T11:45:11.881Z,98722.31
2022-11-17T11:47:40.298Z,98710.78
2022-11-17T11:48:42.430Z,98717.06
2022-11-17T11:49:51.773Z,98713.55
2022-11-17T11:50:56.789Z,98717.06
2022-11-17T11:51:59.846Z,98722.31
2022-11-17T11:53:17.907Z,98720.47
2022-11-17T11:54:40.241Z,98710.60
2022-11-17T11:55:40.733Z,98714.98
2022-11-17T11:56:43.434Z,98720.20
2022-11-17T11:57:54.793Z,98717.52
2022-11-17T12:00:04.899Z,98724.44
2022-11-17T12:01:11.318Z,98732.33
2022-11-17T12:02:17.579Z,98728.55
2022-11-17T12:03:26.543Z,98728.41
2022-11-17T12:04:50.666Z,98732.65
2022-11-17T12:06:29.713Z,98728.13
2022-11-17T12:09:02.223Z,98733.17
2022-11-17T12:10:14.191Z,98718.85
2022-11-17T12:11:17.026Z,98725.08
2022-11-17T12:12:22.049Z,98723.23
2022-11-17T12:13:24.973Z,98719.72
2022-11-17T12:14:30.197Z,98722.26
2022-11-17T12:15:34.260Z,98723.09
2022-11-17T12:16:36.506Z,98725.77
2022-11-17T12:18:01.633Z,98725.77
2022-11-17T12:19:25.146Z,98719.44
2022-11-17T12:20:40.923Z,98707.80
2022-11-17T12:21:43.146Z,98704.22
2022-11-17T12:23:05.852Z,98708.62
2022-11-17T12:24:15.677Z,98707.80
2022-11-17T12:25:20.058Z,98702.44
2022-11-17T12:26:28.573Z,98703.27
2022-11-17T12:27:37.312Z,98697.92
2022-11-17T12:28:41.195Z,98699.77
2022-11-17T12:29:46.519Z,98700.59
2022-11-17T12:30:51.635Z,98697.08
2022-11-17T12:31:55.056Z,98697.92
2022-11-17T12:32:58.096Z,98695.11
2022-11-17T12:34:04.284Z,98689.75
2022-11-17T12:35:26.714Z,98697.78
2022-11-17T12:36:31.392Z,98692.42
2022-11-17T12:37:34.038Z,98692.28
2022-11-17T12:38:41.354Z,98698.51
2022-11-17T12:41:49.819Z,98695.86
2022-11-17T12:43:16.164Z,98701.19
2022-11-17T12:44:43.550Z,98701.19
2022-11-17T12:45:55.713Z,98702.99
2022-11-17T12:47:26.365Z,98709.33
2022-11-17T12:49:51.811Z,98699.66
2022-11-17T12:51:07.859Z,98700.59
2022-11-17T12:52:13.993Z,98706.89
2022-11-17T12:53:35.781Z,98709.57
2022-11-17T12:56:09.521Z,98708.66
2022-11-17T12:57:13.962Z,98699.77
2022-11-17T12:58:27.869Z,98704.22
2022-11-17T13:00:09.057Z,98696.19
2022-11-17T13:01:36.750Z,98696.08
2022-11-17T13:04:18.180Z,98696.97
2022-11-17T13:05:22.572Z,98697.08
2022-11-17T13:06:40.288Z,98698.86
2022-11-17T13:07:29.407Z,98699.84
2022-11-17T13:08:31.610Z,98698.03
2022-11-17T13:09:35.076Z,98699.84
2022-11-17T13:10:37.315Z,98693.51
2022-11-17T13:11:39.399Z,98701.54
2022-11-17T13:12:42.759Z,98697.92
2022-11-17T13:13:47.091Z,98696.08
2022-11-17T13:15:02.114Z,98697.78
2022-11-17T13:16:07.575Z,98694.12
2022-11-17T13:17:10.079Z,98694.12
2022-11-17T13:18:29.985Z,98688.63
2022-11-17T13:19:34.801Z,98693.85
2022-11-17T13:20:37.673Z,98696.53
2022-11-17T13:21:39.803Z,98687.52
2022-11-17T13:22:43.048Z,98676.95
2022-11-17T13:23:47.112Z,98690.20
2022-11-17T13:24:49.822Z,98683.00
2022-11-17T13:26:18.053Z,98686.55
2022-11-17T13:27:27.873Z,98683.00
2022-11-17T13:28:31.332Z,98673.98
2022-11-17T13:29:33.687Z,98676.67
2022-11-17T13:30:36.400Z,98673.98
2022-11-17T13:31:38.457Z,98673.16
2022-11-17T13:32:41.266Z,98673.98
2022-11-17T13:33:43.410Z,98675.69
2022-11-17T13:36:16.683Z,98670.36
2022-11-17T13:37:24.467Z,98670.34
2022-11-17T13:38:27.607Z,98661.44
2022-11-17T13:39:29.704Z,98666.80
2022-11-17T13:40:33.842Z,98663.14
2022-11-17T13:41:37.681Z,98663.98
2022-11-17T13:42:40.429Z,98658.63
2022-11-17T13:43:43.634Z,98657.64
2022-11-17T13:44:45.795Z,98657.64
2022-11-17T13:45:48.693Z,98655.80
2022-11-17T13:46:51.611Z,98656.67
2022-11-17T13:47:56.957Z,98655.80
2022-11-17T13:48:59.107Z,98653.98
2022-11-17T13:50:24.903Z,98653.84
2022-11-17T13:51:30.141Z,98654.69
2022-11-17T13:52:42.072Z,98647.52
2022-11-17T13:53:42.433Z,98658.23
2022-11-17T13:54:45.656Z,98652.87
2022-11-17T13:55:50.051Z,98654.69
2022-11-17T13:58:15.329Z,98658.11
2022-11-17T13:59:23.901Z,98655.69
2022-11-17T14:00:26.736Z,98662.72
2022-11-17T14:01:30.078Z,98657.36
2022-11-17T14:02:32.721Z,98662.72
2022-11-17T14:03:41.925Z,98652.87
2022-11-17T14:05:12.382Z,98665.25
2022-11-17T14:06:15.189Z,98656.39
2022-11-17T14:07:21.607Z,98657.22
2022-11-17T14:08:26.877Z,98659.90
2022-11-17T18:12:50.995Z,98634.75
2022-11-17T18:13:53.482Z,98638.97
2022-11-17T18:14:56.071Z,98643.83
2022-11-17T18:15:58.886Z,98641.42
2022-11-17T18:17:02.984Z,98642.50
2022-11-17T18:18:05.201Z,98644.36
2022-11-17T18:19:08.195Z,98640.84
2022-11-17T18:20:11.342Z,98635.63
2022-11-17T18:21:14.943Z,98630.27
2022-11-17T18:22:17.894Z,98628.53
2022-11-17T18:23:20.128Z,98626.83
2022-11-17T18:24:23.740Z,98620.58
2022-11-17T18:25:25.859Z,98616.20
2022-11-17T18:26:30.368Z,98618.12
2022-11-17T18:27:32.604Z,98613.86
2022-11-17T18:28:35.270Z,98621.95
2022-11-17T18:29:38.284Z,98623.13
2022-11-17T18:30:40.969Z,98617.01
2022-11-17T18:31:45.477Z,98623.39
2022-11-17T18:33:00.279Z,98618.38
2022-11-17T18:34:14.383Z,98620.51
2022-11-17T18:35:17.581Z,98625.21
2022-11-17T18:36:21.255Z,98625.41
2022-11-17T18:37:24.279Z,98627.70
2022-11-17T18:38:26.664Z,98629.97
2022-11-17T18:39:29.325Z,98623.38
2022-11-17T18:40:32.951Z,98622.00
2022-11-17T18:41:35.515Z,98617.23
2022-11-17T18:42:39.144Z,98629.23
2022-11-17T18:43:43.056Z,98625.44
2022-11-17T18:44:49.980Z,98629.55
2022-11-17T18:45:53.307Z,98630.10
2022-11-17T18:47:01.196Z,98628.02
2022-11-17T18:47:59.688Z,98627.74
2022-11-17T18:49:02.705Z,98636.50
2022-11-17T18:50:28.203Z,98627.22
2022-11-17T18:51:33.311Z,98626.08
2022-11-17T18:52:35.802Z,98626.66
2022-11-17T18:54:40.544Z,98623.56
2022-11-17T18:55:43.419Z,98620.75
2022-11-17T18:56:47.055Z,98627.67
2022-11-17T18:57:50.524Z,98635.45
2022-11-17T18:58:53.415Z,98628.11
2022-11-17T18:59:56.108Z,98626.16
2022-11-17T19:01:09.023Z,98631.52
2022-11-17T19:02:11.748Z,98631.38
2022-11-17T19:03:14.388Z,98633.05
2022-11-17T19:04:16.885Z,98626.72
2022-11-17T19:05:19.931Z,98636.45
2022-11-17T19:06:25.403Z,98626.58
2022-11-17T19:07:32.433Z,98625.63
2022-11-17T19:08:35.137Z,98625.63
2022-11-17T19:09:37.217Z,98625.63
2022-11-17T19:10:40.037Z,98624.66
2022-11-17T19:11:42.213Z,98623.65
2022-11-17T19:12:45.732Z,98629.87
2022-11-17T19:13:48.249Z,98620.14
2022-11-17T19:14:51.966Z,98627.20
2022-11-17T19:15:55.966Z,98622.81
2022-11-17T19:16:58.387Z,98621.84
2022-11-17T19:18:01.423Z,98626.33
2022-11-17T19:19:04.204Z,98624.52
2022-11-17T19:20:09.103Z,98623.65
2022-11-17T19:21:15.378Z,98627.20
2022-11-17T19:22:18.606Z,98621.84
2022-11-17T19:23:21.730Z,98616.48
2022-11-17T19:24:24.818Z,98618.30
2022-11-17T19:25:26.973Z,98624.52
2022-11-17T19:27:47.939Z,98614.66
2022-11-17T19:28:50.206Z,98612.94
2022-11-17T19:29:53.908Z,98604.91
2022-11-17T19:31:02.672Z,98615.62
2022-11-17T19:32:06.522Z,98607.73
2022-11-17T19:33:09.250Z,98605.05
2022-11-17T19:34:13.304Z,98600.56
2022-11-17T19:35:21.383Z,98599.70
2022-11-17T19:36:25.038Z,98600.56
2022-11-17T19:37:27.584Z,98601.54
2022-11-17T19:38:31.203Z,98605.92
2022-11-17T19:39:33.498Z,98606.75
2022-11-17T19:40:37.196Z,98612.11
2022-11-17T19:41:39.378Z,98601.40
2022-11-17T19:42:42.002Z,98606.75
2022-11-17T19:43:45.752Z,98593.37
2022-11-17T19:44:49.171Z,98593.37
2022-11-17T19:45:52.791Z,98595.20
2022-11-17T19:46:56.713Z,98596.05
2022-11-17T19:47:59.388Z,98602.23
2022-11-17T19:49:01.470Z,98596.05
2022-11-17T19:50:08.615Z,98596.88
2022-11-17T19:51:29.001Z,98596.88
2022-11-17T19:52:32.632Z,98593.22
2022-11-17T19:53:34.735Z,98598.58
2022-11-17T19:54:37.150Z,98600.42
2022-11-17T19:55:40.806Z,98594.09
2022-11-17T19:56:45.357Z,98593.22
2022-11-17T19:57:48.249Z,98600.28
2022-11-17T19:58:52.062Z,98600.28
2022-11-17T19:59:54.257Z,98602.95
2022-11-17T20:00:56.467Z,98596.77
2022-11-17T20:01:59.057Z,98602.12
2022-11-17T20:03:08.662Z,98583.48
2022-11-17T20:04:25.790Z,98584.36
2022-11-17T20:05:30.991Z,98586.17
2022-11-17T20:06:34.666Z,98588.98
2022-11-17T20:07:37.760Z,98588.98
2022-11-17T20:08:39.900Z,98588.98
2022-11-17T20:09:41.986Z,98586.42
2022-11-17T20:10:45.212Z,98586.42
2022-11-17T20:11:48.119Z,98589.23
2022-11-17T20:12:50.870Z,98594.59
2022-11-17T20:13:56.308Z,98590.08
2022-11-17T20:14:59.213Z,98589.23
2022-11-17T20:16:07.445Z,98591.91
2022-11-17T20:17:07.123Z,98580.52
2022-11-17T20:18:11.760Z,98579.23
2022-11-17T20:19:15.298Z,98579.23
2022-11-17T20:20:19.031Z,98585.00
2022-11-17T20:21:23.258Z,98585.00
2022-11-17T20:22:40.383Z,98585.87
2022-11-17T20:23:43.798Z,98582.33
2022-11-17T20:24:47.480Z,98577.98
2022-11-17T20:25:50.676Z,98578.81
2022-11-17T20:26:53.899Z,98577.11
2022-11-17T20:27:56.565Z,98577.11
2022-11-17T20:28:59.994Z,98578.95
2022-11-17T20:30:02.693Z,98573.59
2022-11-17T20:31:09.645Z,98567.37
2022-11-17T20:32:12.617Z,98565.71
2022-11-17T20:33:15.313Z,98571.06
2022-11-17T20:34:17.896Z,98576.42
2022-11-17T20:35:20.292Z,98565.71
2022-11-17T20:36:22.637Z,98571.06
2022-11-17T20:37:25.822Z,98562.17
2022-11-17T20:38:27.865Z,98562.03
2022-11-17T20:39:30.434Z,98563.88
2022-11-17T20:40:32.503Z,98563.73
2022-11-17T20:41:34.631Z,98566.41
2022-11-17T20:42:36.565Z,98563.59
2022-11-17T20:43:41.017Z,98573.31
2022-11-17T20:44:44.249Z,98567.82
2022-11-17T20:45:51.551Z,98565.98
2022-11-17T20:46:54.308Z,98568.58
2022-11-17T20:47:56.910Z,98569.41
2022-11-17T20:48:59.464Z,98572.92
2022-11-17T20:50:01.452Z,98571.95
2022-11-17T20:51:06.744Z,98570.97
2022-11-17T20:52:13.185Z,98567.31
2022-11-17T20:53:12.801Z,98569.85
2022-11-17T20:54:16.004Z,98571.52
2022-11-17T20:55:20.945Z,98568.84
2022-11-17T20:56:23.104Z,98565.91
2022-11-17T20:57:25.593Z,98569.42
2022-11-17T20:58:30.111Z,98563.09
2022-11-17T20:59:32.295Z,98562.95
2022-11-17T21:00:34.397Z,98559.41
2022-11-17T21:01:37.029Z,98561.11
2022-11-17T21:02:39.678Z,98561.83
2022-11-17T21:03:42.329Z,98568.74
2022-11-17T21:04:45.745Z,98558.03
2022-11-17T21:05:58.396Z,98554.34
2022-11-17T21:06:59.733Z,98559.55
2022-11-17T21:08:04.107Z,98564.66
2022-11-17T21:09:07.067Z,98561.83
2022-11-17T21:10:12.205Z,98573.23
2022-11-17T21:12:28.060Z,98566.61
2022-11-17T21:13:31.782Z,98577.33
2022-11-17T21:14:36.056Z,98577.19
2022-11-17T21:15:39.203Z,98574.36
2022-11-17T21:16:41.756Z,98576.89
2022-11-17T21:17:43.868Z,98567.87
2022-11-17T21:18:47.907Z,98578.45
2022-11-17T21:19:50.027Z,98573.81
2022-11-17T21:20:53.253Z,98572.95
2022-11-17T21:21:55.370Z,98575.52
2022-11-17T21:22:58.385Z,98565.63
2022-11-17T21:24:00.495Z,98572.69
2022-11-17T21:25:02.687Z,98565.48
2022-11-17T21:26:09.510Z,98573.52
2022-11-17T21:27:11.539Z,98571.68
2022-11-17T21:28:14.363Z,98581.42
2022-11-17T21:29:18.689Z,98577.76
2022-11-17T21:30:20.372Z,98579.60
2022-11-17T21:31:27.806Z,98585.80
2022-11-17T21:32:29.823Z,98585.65
2022-11-17T21:33:31.833Z,98592.71
2022-11-17T21:34:35.777Z,98586.34
2022-11-17T21:35:37.908Z,98589.89
2022-11-17T21:36:39.986Z,98583.66
2022-11-17T21:37:42.069Z,98588.04
2022-11-17T21:38:44.934Z,98580.00
2022-11-17T21:39:47.013Z,98587.06
2022-11-17T21:40:49.093Z,98584.37
2022-11-17T21:41:51.143Z,98587.89